Warning: Javascript must be enabled to use all the features on this page!


Page Loading - Please Wait...

* We've detected you're using a mobile device. Find our Next Generation Station Page here.
Click to hideNews Bulletins

Peak Streamflow for the Nation

USGS 05543500 ILLINOIS RIVER AT MARSEILLES, IL

Lasalle County, Illinois
Hydrologic Unit Code 07120005
Latitude  41°19'37", Longitude  88°43'03" NAD27
Drainage area 8,259  square miles
Gage datum 452.91 feet above NGVD29
Output formats
Table
Graph
Tab-separated file
peakfq (watstore) format
Reselect output format
Water
Year
Date Gage
Height
(feet)
Stream-
flow
(cfs)
1892 1892-05-06 21.603 72,5007
1894 1894-03-08 9.603 18,000
1895 1895-03-02 6.203 9,640
1896 1895-12-22 16.103 39,500
1897 1897-01-05 15.803 38,000
1898 1898-03-28 17.103 44,500
1900 1900-03-12 19.503 57,6006
1904 1904-03-26 20.403 63,7006
1905 1905-05-13 14.603 32,6006
1906 1906-01-23 10.503 20,4006
1907 1907-01-19 16.003 39,0006
1908 1908-03-07 22.203 77,0006
1909 1909-04-23 14.403 31,8006
1910 1910-01-20 14.103 30,6006
1911 1911-09-22 12.803 26,6006
1912 1912-03-27 14.703 33,0006
1913 1913-03-28 18.903 54,0006
1914 1914-05-13 12.603 26,0006
1915 1915-08-04 17.303 45,5006
1916 1916-01-21 35.401 40,0002,6,9
1917 1917-06-10 13.403 28,4006
1918 1918-02-15 17.903 48,5006
1919 1919-03-18 20.303 63,0006
1920 1920-04-21 17.803 48,0006
1921 1921-04-27 10.203 19,5006
1922 1922-04-12 20.103 60,6006
1923 1923-03-16 13.003 27,2006
1924 1924-08-10 18.403 51,2006
1925 1925-03-22 11.703 23,6006
1926 1926-04-11 16.403 41,0006
1927 1927-04-20 19.403 56,7006
1928 1927-12-15 15.703 37,5006
1929 1929-03-17 17.503 46,5006
1930 1930-04-22 15.203 35,1006
1931 1931-06-23 11.303 22,5006
1932 1931-11-23 13.203 27,8006
1933 1933-04-02 19.103 62,3006
1934 1934-04-03 8.703 15,4006
1935 1935-05-13 14.843 36,0006
1936 1936-02-27 15.211,3 36,4002,6
1937 1937-04-27 12.283 26,4006
1938 1938-04-11 14.623 35,1006
1939 1939-03-15 15.383 38,8006
1940 1940-03-03 15.26 21,1006
1941 1941-03-11 14.67 18,5006
1942 1942-02-07 23.94 74,4006
1943 1943-05-21 23.82 73,8006
1944 1944-04-24 21.26 56,1006
1945 1945-05-17 18.99 42,3006
1946 1946-01-06 19.15 43,5006
1947 1947-04-06 23.57 72,0006
1948 1948-03-20 22.60 64,4006
1949 1949-02-13 18.31 38,2006
1950 1950-04-26 24.91 83,3006
1951 1951-02-19 20.63 51,9006
1952 1952-06-15 19.30 44,1006
1953 1953-03-15 17.30 32,6006
1954 1954-03-26 19.40 44,7006
1955 1954-10-12 21.39 56,6006
1956 1956-02-25 16.97 30,9006
1957 1957-07-14 25.20 93,9006
1958 1958-06-14 20.06 48,9006
1959 1959-04-29 20.25 49,5006
1960 1960-03-31 18.96 42,3006
1961 1961-09-26 20.21 49,5006
1962 1962-03-22 19.60 46,2006
1963 1963-03-10 16.36 28,5006
1964 1964-04-24 14.73 19,3006
1965 1965-04-26 18.65 40,9006
1966 1966-05-13 22.64 66,5006
1967 1967-04-03   39,0002,6
1968 1968-02-02 20.65 52,2006
1969 1969-01-30 17.61 35,2006
1970 1970-05-15 25.08 92,5006
1971 1971-03-16 16.14 27,1006
1972 1972-08-27 18.73 41,3006
1973 1973-01-01 22.47 64,9006
1974 1974-05-22 22.37 64,0006
1975 1975-04-28 20.30 50,2006
1976 1976-03-06 22.61 66,9006
1977 1977-09-18 17.78 36,1006
1978 1978-06-26 21.31 56,6006
1979 1979-03-20 23.08 71,1006
1980 1980-06-03 20.22 49,7006
1981 1981-06-14 24.73 88,5006
1982 1982-03-14 23.57 75,8006
1983 1982-12-04 26.78 94,1006
1984 1984-02-14 22.46 62,8006
1985 1985-02-24 25.66 84,8006
1986 1985-11-20 23.33 68,3006
1987 1987-08-27 16.84 30,1006
1988 1988-04-07 17.87 35,8006
1989 1989-06-03 18.62 38,3006
1990 1990-03-12 20.94 53,6006
1991 1990-11-29 25.79 85,8006
1992 1992-09-10 16.12 27,5006
1993 1993-01-05 22.48 66,0006
1994 1993-10-18 19.53 47,5006
1995 1995-04-12 19.82 49,3006
1996 1996-07-19 24.53 79,3006
1997 1997-02-22 26.85 95,0006
1998 1998-05-08 24.22 77,2006
1999 1999-04-23 19.48 47,1006
2000 2000-07-11 19.42 46,7006
2001 2001-02-10 22.51 66,0006
2002 2002-05-13 24.52 79,2006
2003 2003-07-19 17.97 38,0006
2004 2004-06-13 20.37 52,2006
2005 2005-01-14 24.88 81,4006
2006 2006-04-18 17.98 38,0006
2007 2007-08-25 24.43 78,4006
2008 2008-09-16 28.13 104,0006
2009 2009-03-11 26.02 89,2006
2010 2009-10-31 20.53 53,2006
2011 2011-05-27 20.46 52,8006
2012 2012-05-08 19.84 49,0006
2013 2013-04-19 28.27 105,0006
2014 2014-07-02 18.96 43,7006
2015 2015-06-17 22.99 68,8006
2016 2015-12-30 24.03 75,7006
2017 2017-05-02 21.52 59,4006
2018 2018-02-22 27.02 96,1006
2019 2019-05-02 26.53 92,7006
2020 2020-05-19 28.32 106,0006
2021 2021-06-30 20.24 51,4006
?
  Peak Gage-Height Qualification Codes.
?
  Peak Streamflow Qualification Codes.